Time;durP1;ratioP1;P1;durP2;ratioP2;P2;SDS_P1;SDS_P2;PMS_P1;PMS_P2;Temp;Humidity;BMP_temperature;BMP_pressure;BME280_temperature;BME280_humidity;BME280_pressure;Samples;Min_cycle;Max_cycle;Signal;HPM_P1;HPM_P2
2023/03/04 00:01:40;;;;;;;64.13;39.17;;;7.40;99.90;;;;;;5093838;28;20613;-79
2023/03/04 00:04:06;;;;;;;63.90;34.63;;;7.40;99.90;;;;;;5097976;28;20601;-79
2023/03/04 00:06:31;;;;;;;65.60;37.17;;;7.30;99.90;;;;;;5096646;28;20191;-79
2023/03/04 00:08:57;;;;;;;60.97;36.57;;;7.20;99.90;;;;;;5096531;28;20199;-79
2023/03/04 00:11:23;;;;;;;62.00;35.30;;;7.20;99.90;;;;;;5097731;28;20424;-78
2023/03/04 00:13:49;;;;;;;63.27;35.27;;;7.10;99.90;;;;;;5097639;28;20235;-78
2023/03/04 00:16:15;;;;;;;57.93;33.60;;;7.00;99.90;;;;;;5097917;28;20478;-79
2023/03/04 00:18:40;;;;;;;60.90;33.00;;;6.90;99.90;;;;;;5097592;28;20245;-79
2023/03/04 00:21:06;;;;;;;61.80;33.70;;;6.90;99.90;;;;;;5097597;28;20219;-79
2023/03/04 00:23:32;;;;;;;60.07;32.97;;;6.90;99.90;;;;;;5097497;28;20227;-79
2023/03/04 00:25:57;;;;;;;56.43;32.10;;;6.80;99.90;;;;;;5096151;28;20272;-79
2023/03/04 00:28:23;;;;;;;56.20;32.00;;;6.80;99.90;;;;;;5096100;28;20261;-79
2023/03/04 00:30:49;;;;;;;58.00;31.50;;;6.70;99.90;;;;;;5097373;28;20184;-79
2023/03/04 00:33:15;;;;;;;52.60;29.87;;;6.70;99.90;;;;;;5097354;28;20188;-79
2023/03/04 00:35:41;;;;;;;62.27;34.40;;;6.70;99.90;;;;;;5097279;28;20451;-79
2023/03/04 00:38:08;;;;;;;49.88;30.42;;;6.80;99.90;;;;;;5097260;28;20645;-79
2023/03/04 00:40:34;;;;;;;58.15;31.65;;;6.80;99.90;;;;;;5097192;28;20549;-79
2023/03/04 00:43:00;;;;;;;50.17;28.60;;;6.90;99.90;;;;;;5097612;28;20208;-78
2023/03/04 00:45:25;;;;;;;52.00;29.37;;;6.90;99.90;;;;;;5097175;28;20260;-79
2023/03/04 00:47:51;;;;;;;49.17;28.53;;;6.90;99.90;;;;;;5095938;28;20238;-79
2023/03/04 00:50:17;;;;;;;53.80;30.83;;;6.90;99.90;;;;;;5097084;28;20176;-79
2023/03/04 00:52:42;;;;;;;49.27;29.00;;;7.00;99.90;;;;;;5095889;28;20580;-78
2023/03/04 00:55:08;;;;;;;54.67;31.13;;;7.10;99.90;;;;;;5097007;28;20820;-79
2023/03/04 00:57:34;;;;;;;48.13;28.10;;;7.10;99.90;;;;;;5097176;28;20196;-79
2023/03/04 01:00:00;;;;;;;51.95;28.27;;;7.10;99.90;;;;;;5096845;28;20920;-79
2023/03/04 01:02:26;;;;;;;49.27;30.10;;;7.10;99.90;;;;;;5097118;28;20204;-79
2023/03/04 01:04:51;;;;;;;57.27;32.10;;;7.10;99.90;;;;;;5095597;28;20168;-79
2023/03/04 01:07:17;;;;;;;51.63;29.40;;;7.00;99.90;;;;;;5096938;28;20196;-79
2023/03/04 01:09:43;;;;;;;47.63;29.47;;;7.00;99.90;;;;;;5095345;28;20637;-79
2023/03/04 01:12:09;;;;;;;47.43;28.97;;;6.90;99.90;;;;;;5096611;28;20888;-79
2023/03/04 01:14:35;;;;;;;55.27;29.93;;;6.90;99.90;;;;;;5095009;28;20507;-79
2023/03/04 01:17:00;;;;;;;54.33;30.40;;;6.90;99.90;;;;;;5095306;28;20212;-79
2023/03/04 01:19:26;;;;;;;51.97;29.47;;;7.00;99.90;;;;;;5096502;28;20172;-79
2023/03/04 01:21:52;;;;;;;54.80;29.23;;;7.00;99.90;;;;;;5096213;28;20212;-79
2023/03/04 01:24:17;;;;;;;50.00;29.07;;;7.10;99.90;;;;;;5096358;28;20176;-79
2023/03/04 01:26:43;;;;;;;48.37;27.53;;;7.10;99.90;;;;;;5095098;28;20413;-79
2023/03/04 01:29:09;;;;;;;54.30;30.37;;;7.10;99.90;;;;;;5096494;28;20181;-79
2023/03/04 01:31:35;;;;;;;52.97;29.67;;;7.10;99.90;;;;;;5096344;28;20176;-79
2023/03/04 01:34:00;;;;;;;53.13;29.70;;;7.00;99.90;;;;;;5096256;28;20276;-79
2023/03/04 01:36:26;;;;;;;51.43;30.60;;;7.00;99.90;;;;;;5094984;28;20207;-79
2023/03/04 01:38:52;;;;;;;52.70;30.37;;;7.00;99.90;;;;;;5096150;28;20196;-79
2023/03/04 01:41:24;;;;;;;58.30;31.40;;;7.00;99.90;;;;;;5094667;28;20681;-79
2023/03/04 01:43:49;;;;;;;57.90;28.63;;;6.90;99.90;;;;;;5096049;28;20188;-79
2023/03/04 01:46:16;;;;;;;50.00;29.70;;;6.90;99.90;;;;;;5096193;28;20183;-79
2023/03/04 01:48:43;;;;;;;56.63;30.13;;;6.80;99.90;;;;;;5094627;28;20465;-78
2023/03/04 01:51:17;;;;;;;51.38;29.52;;;6.80;99.90;;;;;;5094893;28;20261;-79
2023/03/04 01:53:46;;;;;;;55.33;30.48;;;6.90;99.90;;;;;;5094593;28;20204;-78
2023/03/04 01:56:20;;;;;;;54.55;30.38;;;6.90;99.90;;;;;;5094592;28;20208;-79
2023/03/04 01:59:09;;;;;;;52.65;28.65;;;7.00;99.90;;;;;;5095716;28;20184;-78
2023/03/04 02:01:36;;;;;;;56.95;30.02;;;7.00;99.90;;;;;;5094355;28;20700;-79
2023/03/04 02:04:02;;;;;;;55.33;30.95;;;7.00;99.90;;;;;;5095648;28;20179;-79
2023/03/04 02:06:28;;;;;;;59.07;31.70;;;7.00;99.90;;;;;;5095863;28;20184;-79
2023/03/04 02:08:53;;;;;;;52.13;28.50;;;7.10;99.90;;;;;;5095606;28;20447;-79
2023/03/04 02:11:19;;;;;;;52.10;28.60;;;7.10;99.90;;;;;;5095697;28;20180;-79
2023/03/04 02:13:45;;;;;;;57.03;30.40;;;7.10;99.90;;;;;;5095292;28;20231;-79
2023/03/04 02:16:11;;;;;;;55.60;29.07;;;7.10;99.90;;;;;;5094113;28;20433;-79
2023/03/04 02:18:36;;;;;;;57.70;31.20;;;7.10;99.90;;;;;;5095297;28;20216;-79
2023/03/04 02:21:21;;;;;;;58.83;31.20;;;7.10;99.90;;;;;;5095296;28;20439;-78
2023/03/04 02:23:51;;;;;;;60.70;30.33;;;7.10;99.90;;;;;;5095307;28;20199;-79
2023/03/04 02:26:19;;;;;;;50.70;30.02;;;7.10;99.90;;;;;;5094857;28;20173;-79
2023/03/04 02:28:47;;;;;;;58.92;30.90;;;7.10;99.90;;;;;;5093825;28;20203;-79
2023/03/04 02:31:34;;;;;;;49.05;29.25;;;7.10;99.90;;;;;;5093866;28;20188;-79
2023/03/04 02:34:04;;;;;;;54.63;30.83;;;7.00;99.90;;;;;;5095202;28;20220;-79
2023/03/04 02:36:30;;;;;;;61.08;31.60;;;7.00;99.90;;;;;;5095290;28;20181;-79
2023/03/04 02:39:02;;;;;;;55.90;30.30;;;6.90;99.90;;;;;;5093700;28;20204;-79
2023/03/04 02:41:29;;;;;;;53.75;30.50;;;6.90;99.90;;;;;;5094893;28;20677;-79
2023/03/04 02:43:55;;;;;;;57.75;31.33;;;6.80;99.90;;;;;;5094918;28;20188;-79
2023/03/04 02:46:22;;;;;;;55.45;30.90;;;6.80;99.90;;;;;;5095007;28;20301;-79
2023/03/04 02:48:49;;;;;;;58.00;34.30;;;6.80;99.90;;;;;;5093474;28;20207;-79
2023/03/04 02:51:14;;;;;;;50.63;29.98;;;6.70;99.90;;;;;;5094988;28;20181;-78
2023/03/04 02:53:40;;;;;;;56.10;31.33;;;6.70;99.90;;;;;;5094770;28;20195;-79
2023/03/04 02:56:06;;;;;;;57.20;31.80;;;6.60;99.90;;;;;;5094889;28;20177;-79
2023/03/04 02:58:32;;;;;;;56.63;30.50;;;6.70;99.90;;;;;;5094652;28;20245;-79
2023/03/04 03:00:58;;;;;;;63.28;33.33;;;6.60;99.90;;;;;;5094464;28;20549;-79
2023/03/04 03:03:24;;;;;;;52.37;31.00;;;6.60;99.90;;;;;;5093278;28;20688;-79
2023/03/04 03:05:50;;;;;;;51.63;30.53;;;6.50;99.90;;;;;;5094439;28;20606;-79
2023/03/04 03:08:16;;;;;;;60.00;32.40;;;6.50;99.90;;;;;;5093223;28;20504;-79
2023/03/04 03:10:41;;;;;;;58.83;33.90;;;6.40;99.90;;;;;;5094300;28;20788;-79
2023/03/04 03:13:07;;;;;;;48.93;30.57;;;6.40;99.90;;;;;;5094151;28;20819;-79
2023/03/04 03:15:33;;;;;;;55.00;31.93;;;6.20;99.90;;;;;;5094379;28;20173;-79
2023/03/04 03:17:58;;;;;;;54.00;32.67;;;6.20;99.90;;;;;;5094720;28;20224;-79
2023/03/04 03:20:24;;;;;;;53.90;30.47;;;6.30;99.90;;;;;;5094220;28;20172;-79
2023/03/04 03:22:50;;;;;;;54.57;30.83;;;6.30;99.90;;;;;;5094726;28;20208;-78
2023/03/04 03:25:16;;;;;;;54.70;31.77;;;6.20;99.90;;;;;;5094278;28;20258;-78
2023/03/04 03:27:42;;;;;;;56.53;32.93;;;6.10;99.90;;;;;;5094564;28;20196;-78
2023/03/04 03:30:11;;;;;;;52.47;30.42;;;6.00;99.90;;;;;;5094206;28;20206;-79
2023/03/04 03:32:37;;;;;;;49.88;31.15;;;6.00;99.90;;;;;;5094460;28;20203;-79
2023/03/04 03:35:03;;;;;;;59.60;33.53;;;5.90;99.90;;;;;;5094073;28;20694;-79
2023/03/04 03:37:29;;;;;;;56.97;36.58;;;5.80;99.90;;;;;;5092752;28;20204;-79
2023/03/04 03:39:54;;;;;;;60.20;33.50;;;5.70;99.90;;;;;;5094178;28;20164;-79
2023/03/04 03:42:20;;;;;;;52.77;32.60;;;5.60;99.90;;;;;;5092696;28;20273;-79
2023/03/04 03:44:46;;;;;;;59.53;31.40;;;5.60;99.90;;;;;;5093931;28;20260;-79
2023/03/04 03:47:11;;;;;;;52.37;32.23;;;5.60;99.90;;;;;;5094210;28;20802;-78
2023/03/04 03:49:37;;;;;;;61.03;35.10;;;5.60;99.90;;;;;;5093887;28;20181;-79
2023/03/04 03:52:03;;;;;;;53.67;31.13;;;5.60;99.90;;;;;;5092717;28;20303;-79
2023/03/04 03:54:29;;;;;;;65.45;33.78;;;5.50;99.90;;;;;;5093813;28;20602;-79
2023/03/04 03:56:55;;;;;;;57.00;32.53;;;5.30;99.90;;;;;;5092461;28;20192;-79
2023/03/04 03:59:22;;;;;;;59.97;33.10;;;5.20;99.90;;;;;;5093756;28;20408;-79
2023/03/04 04:01:48;;;;;;;64.65;35.67;;;5.20;99.90;;;;;;5093928;28;20560;-79
2023/03/04 04:04:14;;;;;;;62.10;36.23;;;5.10;99.90;;;;;;5093745;28;20169;-79
2023/03/04 04:06:40;;;;;;;64.43;34.37;;;5.20;99.90;;;;;;5092486;28;21001;-79
2023/03/04 04:09:06;;;;;;;55.90;32.33;;;5.20;99.90;;;;;;5093729;28;20209;-79
2023/03/04 04:11:31;;;;;;;63.63;34.13;;;5.20;99.90;;;;;;5093883;28;20186;-79
2023/03/04 04:13:57;;;;;;;64.30;34.43;;;5.20;99.90;;;;;;5092283;28;20474;-79
2023/03/04 04:16:23;;;;;;;52.93;31.37;;;5.20;99.90;;;;;;5093854;28;20404;-79
2023/03/04 04:18:49;;;;;;;56.33;32.22;;;5.20;99.90;;;;;;5093584;28;20801;-79
2023/03/04 04:21:15;;;;;;;62.70;32.63;;;5.10;99.90;;;;;;5092242;28;20224;-79
2023/03/04 04:23:40;;;;;;;61.40;32.30;;;5.10;99.90;;;;;;5093556;28;20542;-79
2023/03/04 04:26:06;;;;;;;61.50;34.07;;;5.10;99.90;;;;;;5093621;28;20184;-79
2023/03/04 04:28:32;;;;;;;55.50;33.50;;;5.10;99.90;;;;;;5093483;28;20249;-79
2023/03/04 04:30:57;;;;;;;57.60;31.87;;;5.10;99.90;;;;;;5093560;28;20172;-79
2023/03/04 04:33:24;;;;;;;58.03;33.30;;;5.00;99.90;;;;;;5093403;28;21019;-79
2023/03/04 04:35:50;;;;;;;62.40;34.67;;;5.00;99.90;;;;;;5092398;28;20222;-79
2023/03/04 04:38:16;;;;;;;60.57;34.27;;;4.90;99.90;;;;;;5093318;28;20189;-79
2023/03/04 04:40:41;;;;;;;59.50;33.53;;;4.80;99.90;;;;;;5091867;28;20457;-79
2023/03/04 04:43:07;;;;;;;58.60;30.83;;;4.90;99.90;;;;;;5093233;28;20941;-79
2023/03/04 04:45:33;;;;;;;60.67;33.43;;;5.00;99.90;;;;;;5093284;28;20921;-79
2023/03/04 04:47:59;;;;;;;57.17;33.15;;;5.10;99.90;;;;;;5092699;28;20204;-79
2023/03/04 04:50:26;;;;;;;57.00;31.50;;;5.00;99.90;;;;;;5097295;28;20173;-79
2023/03/04 04:52:52;;;;;;;59.38;33.58;;;5.10;99.90;;;;;;5097499;28;20531;-79
2023/03/04 04:55:17;;;;;;;60.67;34.23;;;5.10;99.90;;;;;;5095779;28;20271;-79
2023/03/04 04:57:43;;;;;;;55.33;32.33;;;5.10;99.90;;;;;;5097410;28;20208;-79
2023/03/04 05:00:10;;;;;;;56.53;32.90;;;5.00;99.90;;;;;;5097009;28;20450;-78
2023/03/04 05:02:36;;;;;;;61.40;34.67;;;5.00;99.90;;;;;;5095538;28;20551;-79
2023/03/04 05:05:06;;;;;;;63.27;34.47;;;5.00;99.90;;;;;;5096881;28;20601;-78
2023/03/04 05:07:33;;;;;;;59.47;33.05;;;4.90;99.90;;;;;;5097235;28;20451;-79
2023/03/04 05:09:58;;;;;;;58.15;35.30;;;4.90;99.90;;;;;;5096754;28;20705;-79
2023/03/04 05:12:24;;;;;;;64.03;34.67;;;4.80;99.90;;;;;;5095428;28;20335;-79
2023/03/04 05:14:50;;;;;;;62.13;34.60;;;4.80;99.90;;;;;;5096787;28;20512;-79
2023/03/04 05:17:15;;;;;;;60.33;33.63;;;4.70;99.90;;;;;;5095219;28;20728;-79
2023/03/04 05:19:41;;;;;;;58.77;34.57;;;4.50;99.90;;;;;;5096522;28;20583;-79
2023/03/04 05:22:07;;;;;;;56.97;33.20;;;4.30;99.90;;;;;;5095365;28;20697;-79
2023/03/04 05:24:33;;;;;;;61.70;32.33;;;4.30;99.90;;;;;;5096588;28;20176;-79
2023/03/04 05:27:00;;;;;;;60.28;36.25;;;4.40;99.90;;;;;;5096230;28;20444;-79
2023/03/04 05:29:26;;;;;;;70.57;38.75;;;4.50;99.90;;;;;;5096345;28;20201;-79
2023/03/04 05:31:51;;;;;;;61.83;36.10;;;4.50;99.90;;;;;;5096604;28;20211;-79
2023/03/04 05:34:17;;;;;;;56.53;34.60;;;4.50;99.90;;;;;;5095034;28;20217;-79
2023/03/04 05:36:43;;;;;;;63.40;34.60;;;4.60;99.90;;;;;;5096233;28;20184;-79
2023/03/04 05:39:10;;;;;;;58.33;33.47;;;4.60;99.90;;;;;;5096195;28;20290;-79
2023/03/04 05:41:36;;;;;;;65.43;36.45;;;4.60;99.90;;;;;;5094728;28;20248;-79
2023/03/04 05:44:01;;;;;;;81.93;42.90;;;4.60;99.90;;;;;;5094878;28;20173;-79
2023/03/04 05:46:27;;;;;;;82.43;47.20;;;4.60;99.90;;;;;;5095996;28;20558;-77
2023/03/04 05:48:54;;;;;;;78.40;41.40;;;4.50;99.90;;;;;;5096066;28;20959;-79
2023/03/04 05:51:20;;;;;;;231.70;117.18;;;4.50;99.90;;;;;;5094740;28;20664;-79
2023/03/04 05:53:47;;;;;;;273.42;135.88;;;4.50;99.90;;;;;;5095790;28;20226;-79
2023/03/04 05:56:16;;;;;;;488.15;257.35;;;4.50;99.90;;;;;;5094524;28;20227;-79
2023/03/04 05:58:43;;;;;;;214.45;113.05;;;4.50;99.90;;;;;;5094470;28;20203;-78
2023/03/04 06:01:09;;;;;;;84.60;50.67;;;4.50;99.90;;;;;;5094765;28;20219;-79
2023/03/04 06:03:35;;;;;;;63.03;37.70;;;4.60;99.90;;;;;;5094364;28;20193;-79
2023/03/04 06:06:01;;;;;;;62.95;36.67;;;4.70;99.90;;;;;;5095690;28;20745;-79
2023/03/04 06:08:27;;;;;;;57.88;34.85;;;4.70;99.90;;;;;;5095591;28;20192;-79
2023/03/04 06:10:55;;;;;;;70.03;37.20;;;4.70;99.90;;;;;;5094408;28;20329;-79
2023/03/04 06:13:22;;;;;;;92.13;48.38;;;4.70;99.90;;;;;;5094276;28;20239;-78
2023/03/04 06:15:53;;;;;;;72.32;40.92;;;4.80;99.90;;;;;;5094103;28;20184;-78
2023/03/04 06:18:19;;;;;;;61.25;36.25;;;4.80;99.90;;;;;;5094123;28;20731;-78
2023/03/04 06:20:44;;;;;;;56.00;32.50;;;4.90;99.90;;;;;;5095258;28;20252;-78
2023/03/04 06:23:10;;;;;;;56.33;32.93;;;4.90;99.90;;;;;;5095316;28;20433;-78
2023/03/04 06:25:36;;;;;;;53.30;32.43;;;5.00;99.90;;;;;;5095271;28;20172;-78
2023/03/04 06:28:03;;;;;;;54.50;31.40;;;5.10;99.90;;;;;;5095669;28;20223;-78
2023/03/04 06:30:28;;;;;;;50.87;30.03;;;5.20;99.90;;;;;;5093871;28;20206;-78
2023/03/04 06:32:54;;;;;;;57.67;33.77;;;5.20;99.90;;;;;;5093922;28;20254;-78
2023/03/04 06:35:20;;;;;;;63.27;32.57;;;5.30;99.90;;;;;;5095079;28;20905;-78
2023/03/04 06:37:46;;;;;;;51.58;30.70;;;5.40;99.90;;;;;;5095474;28;20200;-79
2023/03/04 06:40:12;;;;;;;54.40;33.43;;;5.40;99.90;;;;;;5095062;28;20173;-78
2023/03/04 06:42:39;;;;;;;56.75;33.75;;;5.40;99.90;;;;;;5093617;28;20228;-78
2023/03/04 06:45:06;;;;;;;54.15;30.52;;;5.50;99.90;;;;;;5094913;28;20180;-79
2023/03/04 06:47:31;;;;;;;49.25;30.35;;;5.50;99.90;;;;;;5094780;28;20673;-79
2023/03/04 06:49:57;;;;;;;46.77;29.53;;;5.60;99.90;;;;;;5094853;28;20176;-79
2023/03/04 06:52:23;;;;;;;48.63;31.17;;;5.70;99.90;;;;;;5095051;28;20649;-78
2023/03/04 06:54:48;;;;;;;47.60;29.53;;;5.80;99.90;;;;;;5094810;28;20171;-79
2023/03/04 06:57:14;;;;;;;48.90;30.70;;;5.80;99.90;;;;;;5094933;28;20196;-78
2023/03/04 06:59:40;;;;;;;43.37;29.20;;;5.90;99.90;;;;;;5094571;28;20176;-78
2023/03/04 07:02:08;;;;;;;52.50;32.27;;;6.00;99.90;;;;;;5093437;28;20273;-79
2023/03/04 07:04:34;;;;;;;48.55;29.63;;;6.10;99.90;;;;;;5093239;28;20180;-79
2023/03/04 07:07:00;;;;;;;46.20;26.90;;;6.20;99.90;;;;;;5094463;28;20661;-79
2023/03/04 07:09:26;;;;;;;48.60;30.03;;;6.30;99.90;;;;;;5093218;28;20181;-79
2023/03/04 07:11:51;;;;;;;57.07;36.40;;;6.40;99.90;;;;;;5094357;28;20200;-79
2023/03/04 07:14:17;;;;;;;42.20;28.90;;;6.50;99.90;;;;;;5094448;28;20228;-79
2023/03/04 07:16:43;;;;;;;41.90;25.53;;;6.70;99.90;;;;;;5093199;28;20188;-79
2023/03/04 07:19:08;;;;;;;35.67;25.23;;;6.90;99.90;;;;;;5094414;28;20691;-79
2023/03/04 07:21:34;;;;;;;38.07;24.47;;;7.00;99.90;;;;;;5094259;28;20212;-79
2023/03/04 07:24:00;;;;;;;37.20;24.80;;;7.10;99.90;;;;;;5094109;28;20192;-78
2023/03/04 07:26:26;;;;;;;38.72;24.40;;;7.20;99.90;;;;;;5093234;28;20266;-79
2023/03/04 07:28:53;;;;;;;41.10;24.30;;;7.30;99.90;;;;;;5094123;28;20683;-79
2023/03/04 07:31:27;;;;;;;39.05;24.35;;;7.40;99.90;;;;;;5094230;28;20249;-79
2023/03/04 07:33:55;;;;;;;37.10;23.25;;;7.50;99.90;;;;;;5094127;28;20780;-79
2023/03/04 07:36:21;;;;;;;36.97;24.05;;;7.60;99.90;;;;;;5094129;28;20183;-79
2023/03/04 07:38:48;;;;;;;38.40;22.80;;;7.70;99.90;;;;;;5093965;28;20661;-79
2023/03/04 07:41:15;;;;;;;34.78;22.67;;;7.90;99.90;;;;;;5094118;28;20218;-79
2023/03/04 07:43:41;;;;;;;36.95;22.30;;;8.00;99.90;;;;;;5093916;28;20212;-79
2023/03/04 07:46:07;;;;;;;34.83;21.60;;;8.10;99.90;;;;;;5092622;28;20185;-79
2023/03/04 07:48:33;;;;;;;30.92;21.20;;;8.20;99.90;;;;;;5092526;28;20249;-78
2023/03/04 07:51:11;;;;;;;37.60;21.90;;;8.30;99.90;;;;;;5094015;28;20569;-78
2023/03/04 07:53:38;;;;;;;37.35;22.42;;;8.50;99.90;;;;;;5092448;28;20433;-78
2023/03/04 07:56:05;;;;;;;36.53;23.40;;;8.70;99.90;;;;;;5093951;28;20178;-79
2023/03/04 07:58:31;;;;;;;34.95;22.63;;;8.90;99.90;;;;;;5092465;28;20204;-78
2023/03/04 08:00:58;;;;;;;40.70;22.70;;;9.00;99.90;;;;;;5094031;28;20203;-79
2023/03/04 08:03:23;;;;;;;37.75;23.60;;;9.20;99.90;;;;;;5092480;28;20215;-79
2023/03/04 08:05:50;;;;;;;34.93;23.50;;;9.40;99.90;;;;;;5093755;28;20545;-79
2023/03/04 08:08:15;;;;;;;33.42;22.30;;;9.60;99.90;;;;;;5093647;28;20421;-79
2023/03/04 08:10:42;;;;;;;36.93;23.43;;;9.80;99.90;;;;;;5093548;28;20200;-79
2023/03/04 08:13:08;;;;;;;34.55;22.63;;;10.20;99.90;;;;;;5092156;28;20255;-79
2023/03/04 08:15:34;;;;;;;35.23;23.23;;;10.70;99.90;;;;;;5093626;28;20173;-79
2023/03/04 08:18:00;;;;;;;33.88;22.80;;;11.40;99.90;;;;;;5094288;28;20192;-79
2023/03/04 08:20:26;;;;;;;35.40;24.90;;;12.30;99.90;;;;;;5092334;28;20176;-79
2023/03/04 08:22:52;;;;;;;41.83;24.70;;;13.10;99.90;;;;;;5094490;28;20569;-80
2023/03/04 08:25:18;;;;;;;32.30;21.93;;;13.90;99.90;;;;;;5097681;28;20247;-79
2023/03/04 08:27:44;;;;;;;36.33;24.90;;;14.60;99.90;;;;;;5097457;28;20196;-80
2023/03/04 08:30:10;;;;;;;39.20;25.03;;;15.40;99.90;;;;;;5097643;28;20218;-79
2023/03/04 08:32:36;;;;;;;34.03;25.43;;;16.20;99.90;;;;;;5097796;28;20196;-80
2023/03/04 08:35:01;;;;;;;34.70;24.33;;;17.00;99.00;;;;;;5096171;28;20462;-80
2023/03/04 08:37:28;;;;;;;41.23;28.03;;;17.40;96.50;;;;;;5097903;28;20204;-80
2023/03/04 08:39:54;;;;;;;41.13;27.40;;;17.90;95.10;;;;;;5097442;28;20161;-80
2023/03/04 08:42:20;;;;;;;38.03;27.47;;;18.30;94.50;;;;;;5096119;28;20907;-80
2023/03/04 08:44:46;;;;;;;35.73;26.57;;;18.80;92.90;;;;;;5097162;28;20173;-80
2023/03/04 08:47:11;;;;;;;36.03;27.10;;;19.30;91.20;;;;;;5097467;28;20437;-79
2023/03/04 08:49:37;;;;;;;39.87;28.10;;;19.80;90.40;;;;;;5097164;28;20178;-79
2023/03/04 08:52:04;;;;;;;38.10;25.90;;;20.20;88.20;;;;;;5095936;28;20206;-80
2023/03/04 08:54:29;;;;;;;37.87;25.70;;;20.50;85.70;;;;;;5095851;28;20419;-79
2023/03/04 08:56:55;;;;;;;36.87;26.23;;;20.70;83.90;;;;;;5096918;28;22194;-80
2023/03/04 08:59:21;;;;;;;35.10;26.63;;;20.90;82.70;;;;;;5096996;28;20664;-79
2023/03/04 09:01:46;;;;;;;38.03;29.20;;;21.10;80.40;;;;;;5097035;28;20673;-80
2023/03/04 09:04:12;;;;;;;40.50;28.10;;;21.00;79.90;;;;;;5095750;28;20179;-79
2023/03/04 09:06:38;;;;;;;39.10;28.20;;;21.00;79.30;;;;;;5096921;28;20786;-80
2023/03/04 09:09:04;;;;;;;42.57;28.33;;;21.10;78.30;;;;;;5094398;28;20180;-79
2023/03/04 09:11:30;;;;;;;40.60;28.40;;;20.90;79.00;;;;;;5096723;28;20195;-80
2023/03/04 09:13:56;;;;;;;37.10;25.87;;;21.10;78.10;;;;;;5094863;28;20501;-80
2023/03/04 09:16:22;;;;;;;38.40;26.40;;;21.60;77.60;;;;;;5080019;28;20433;-80
2023/03/04 09:18:48;;;;;;;37.30;27.97;;;22.10;75.30;;;;;;5072592;28;20193;-80
2023/03/04 09:21:13;;;;;;;33.07;25.87;;;22.50;73.90;;;;;;5085466;28;20232;-80
2023/03/04 09:23:39;;;;;;;32.20;24.93;;;22.60;73.40;;;;;;5072514;28;20197;-80
2023/03/04 09:26:26;;;;;;;32.80;25.37;;;22.90;71.00;;;;;;5071271;28;20426;-80
2023/03/04 09:28:54;;;;;;;38.93;27.70;;;23.00;69.10;;;;;;5073300;28;20185;-80
2023/03/04 09:31:21;;;;;;;32.97;24.27;;;23.00;70.30;;;;;;5072024;28;20931;-80
2023/03/04 09:33:47;;;;;;;42.50;28.30;;;22.90;69.30;;;;;;5070794;28;20426;-80
2023/03/04 09:36:14;;;;;;;35.37;25.90;;;22.70;70.50;;;;;;5072027;28;20478;-80
2023/03/04 09:38:40;;;;;;;31.50;23.50;;;22.70;70.40;;;;;;5072001;28;20438;-79
2023/03/04 09:41:08;;;;;;;31.50;21.93;;;22.40;67.30;;;;;;5071768;28;20492;-80
2023/03/04 09:43:36;;;;;;;31.00;22.90;;;21.80;67.40;;;;;;5072099;28;20626;-80
2023/03/04 09:46:07;;;;;;;32.37;22.37;;;21.40;70.40;;;;;;5072075;28;20482;-80
2023/03/04 09:48:49;;;;;;;41.60;24.40;;;21.30;68.40;;;;;;5071665;28;20437;-80
2023/03/04 09:51:22;;;;;;;31.47;22.50;;;21.40;69.60;;;;;;5075568;28;20910;-80
2023/03/04 09:54:22;;;;;;;30.83;22.93;;;21.50;68.80;;;;;;5075764;28;20468;-80
2023/03/04 09:56:50;;;;;;;28.40;20.73;;;21.70;67.80;;;;;;5075605;28;20934;-80
2023/03/04 09:59:31;;;;;;;27.10;19.50;;;21.60;67.80;;;;;;5075756;28;20410;-80
2023/03/04 10:02:02;;;;;;;32.13;23.37;;;21.70;68.00;;;;;;5074355;28;20488;-80
2023/03/04 10:04:47;;;;;;;34.07;24.63;;;21.60;69.80;;;;;;5075640;28;20390;-80
2023/03/04 10:07:19;;;;;;;28.60;21.07;;;21.60;67.80;;;;;;5075905;28;20801;-80
2023/03/04 10:09:46;;;;;;;31.03;21.87;;;21.40;67.20;;;;;;5075481;28;20477;-80
2023/03/04 10:12:20;;;;;;;28.57;21.97;;;21.00;67.30;;;;;;5073910;28;20457;-79
2023/03/04 10:15:00;;;;;;;27.80;20.70;;;20.60;68.30;;;;;;5074006;28;20446;-79
2023/03/04 10:17:37;;;;;;;30.50;21.27;;;20.20;69.00;;;;;;5075680;28;20462;-79
2023/03/04 10:20:15;;;;;;;31.63;20.77;;;19.90;69.50;;;;;;5074002;28;20427;-79
2023/03/04 10:22:47;;;;;;;28.27;22.23;;;19.60;69.10;;;;;;5075512;28;20817;-79
2023/03/04 10:25:30;;;;;;;27.30;20.53;;;19.30;69.20;;;;;;5075306;28;20818;-80
2023/03/04 10:28:04;;;;;;;27.33;20.47;;;18.90;69.90;;;;;;5075594;28;20548;-79
2023/03/04 10:30:42;;;;;;;30.70;21.00;;;18.50;70.20;;;;;;5075058;28;20475;-79
2023/03/04 10:33:17;;;;;;;33.70;22.97;;;18.00;71.30;;;;;;5074940;28;20970;-79
2023/03/04 10:35:46;;;;;;;22.43;16.50;;;17.40;74.00;;;;;;5074739;28;20765;-80
2023/03/04 10:38:14;;;;;;;25.63;18.93;;;17.20;70.40;;;;;;5074866;28;20491;-79
2023/03/04 10:40:41;;;;;;;20.27;15.50;;;16.90;71.10;;;;;;5074685;28;20489;-78
2023/03/04 10:43:18;;;;;;;21.77;14.80;;;16.60;69.30;;;;;;5074672;28;20434;-79
2023/03/04 10:45:45;;;;;;;20.03;14.33;;;16.40;70.00;;;;;;5072701;28;20424;-79
2023/03/04 10:48:28;;;;;;;19.93;13.77;;;16.40;71.30;;;;;;5073335;28;20445;-79
2023/03/04 10:51:25;;;;;;;20.57;13.67;;;16.50;70.80;;;;;;5074600;28;20409;-79
2023/03/04 10:54:02;;;;;;;23.97;14.20;;;16.50;69.30;;;;;;5074529;28;20504;-79
2023/03/04 10:56:41;;;;;;;20.43;13.37;;;16.50;70.60;;;;;;5074739;28;20467;-79
2023/03/04 10:59:35;;;;;;;17.50;12.47;;;16.40;69.10;;;;;;5073224;28;20410;-79
2023/03/04 11:02:12;;;;;;;19.70;12.87;;;16.40;68.40;;;;;;5073071;28;21010;-79
2023/03/04 11:04:38;;;;;;;17.03;11.77;;;16.40;68.20;;;;;;5073141;28;20941;-79
2023/03/04 11:07:09;;;;;;;23.13;15.37;;;16.40;68.70;;;;;;5073261;28;20446;-79
2023/03/04 11:09:35;;;;;;;17.23;12.87;;;16.30;69.70;;;;;;5074277;28;20159;-79
2023/03/04 11:12:03;;;;;;;36.17;23.73;;;16.20;68.50;;;;;;5074458;28;20516;-79
2023/03/04 11:14:36;;;;;;;19.83;14.07;;;16.00;69.00;;;;;;5072927;28;20196;-79
2023/03/04 11:17:21;;;;;;;20.73;13.60;;;15.90;71.70;;;;;;5074507;28;20433;-79
2023/03/04 11:19:55;;;;;;;20.57;15.43;;;15.90;70.20;;;;;;5074096;28;20398;-79
2023/03/04 11:22:24;;;;;;;22.50;15.80;;;15.80;69.60;;;;;;5074526;28;20480;-79
2023/03/04 11:25:01;;;;;;;22.57;14.53;;;15.70;69.80;;;;;;5072618;28;20410;-80
2023/03/04 11:27:41;;;;;;;20.43;14.10;;;15.70;70.90;;;;;;5073206;28;20438;-79
2023/03/04 11:30:25;;;;;;;20.83;15.00;;;15.70;70.80;;;;;;5073568;28;20812;-79
2023/03/04 11:32:55;;;;;;;26.10;16.80;;;15.90;72.60;;;;;;5074386;28;20789;-79
2023/03/04 11:35:29;;;;;;;26.70;16.93;;;15.90;71.70;;;;;;5073894;28;20462;-79
2023/03/04 11:38:25;;;;;;;26.87;19.20;;;15.90;72.60;;;;;;5074506;28;20437;-79
2023/03/04 11:40:55;;;;;;;26.53;18.20;;;15.90;72.60;;;;;;5073667;28;20487;-79
2023/03/04 11:43:25;;;;;;;25.43;18.63;;;15.90;73.50;;;;;;5072556;28;21049;-79
2023/03/04 11:45:50;;;;;;;26.20;20.10;;;16.00;75.20;;;;;;5073294;28;20410;-79
2023/03/04 11:48:31;;;;;;;26.57;18.97;;;16.00;74.20;;;;;;5070205;28;20445;-79
2023/03/04 11:51:04;;;;;;;24.03;18.10;;;16.10;74.00;;;;;;5071813;28;20667;-79
2023/03/04 11:53:51;;;;;;;25.57;18.80;;;16.00;73.70;;;;;;5071507;28;20445;-79
2023/03/04 11:56:20;;;;;;;30.50;19.20;;;15.90;73.00;;;;;;5071464;28;20460;-79
2023/03/04 11:59:04;;;;;;;33.23;20.80;;;15.90;74.80;;;;;;5077590;28;20468;-80
2023/03/04 12:01:54;;;;;;;33.13;22.40;;;15.90;75.10;;;;;;5092354;28;21055;-79
2023/03/04 12:04:22;;;;;;;33.60;23.10;;;16.00;77.50;;;;;;5093891;28;20398;-79
2023/03/04 12:07:12;;;;;;;28.93;21.73;;;16.10;77.30;;;;;;5093901;28;20436;-79
2023/03/04 12:10:13;;;;;;;31.77;23.70;;;16.10;75.50;;;;;;5093730;28;20969;-80
2023/03/04 12:12:41;;;;;;;32.73;22.07;;;16.00;75.20;;;;;;5092210;28;20477;-79
2023/03/04 12:15:12;;;;;;;29.80;20.67;;;15.90;75.30;;;;;;5093683;28;20746;-79
2023/03/04 12:18:15;;;;;;;26.97;18.57;;;15.80;74.80;;;;;;5093919;28;20449;-79
2023/03/04 12:21:15;;;;;;;27.93;18.90;;;15.90;75.50;;;;;;5093376;28;20405;-79
2023/03/04 12:24:11;;;;;;;30.57;19.93;;;15.90;74.10;;;;;;5089897;28;20444;-79
2023/03/04 12:26:49;;;;;;;29.17;20.33;;;15.90;74.40;;;;;;5091509;28;20921;-80
2023/03/04 12:29:40;;;;;;;35.27;21.73;;;15.90;75.60;;;;;;5091402;28;20872;-80
2023/03/04 12:32:17;;;;;;;32.53;20.77;;;15.90;74.70;;;;;;5091764;28;20831;-79
2023/03/04 12:34:56;;;;;;;28.23;18.93;;;15.80;74.40;;;;;;5091474;28;20409;-79
2023/03/04 12:37:45;;;;;;;29.70;19.77;;;15.70;74.90;;;;;;5092553;28;20444;-79
2023/03/04 12:40:29;;;;;;;34.40;21.00;;;15.60;75.80;;;;;;5084407;28;20965;-79
2023/03/04 12:43:31;;;;;;;30.47;20.73;;;15.50;75.20;;;;;;5092246;28;20475;-79